Time;durP1;ratioP1;P1;durP2;ratioP2;P2;SDS_P1;SDS_P2;PMS_P1;PMS_P2;Temp;Humidity;BMP_temperature;BMP_pressure;BME280_temperature;BME280_humidity;BME280_pressure;Samples;Min_cycle;Max_cycle;Signal;HPM_P1;HPM_P2
2022/04/21 00:00:30;;;;;;;8.02;4.55;;;7.40;99.90;;;;;;5089636;28;20078;-78
2022/04/21 00:02:56;;;;;;;11.93;5.72;;;7.30;99.90;;;;;;5090186;28;20532;-78
2022/04/21 00:05:22;;;;;;;11.20;4.70;;;7.30;99.90;;;;;;5108045;28;20036;-78
2022/04/21 00:07:48;;;;;;;8.80;5.15;;;7.30;99.90;;;;;;5109130;28;20044;-79
2022/04/21 00:10:15;;;;;;;9.30;5.30;;;7.20;99.90;;;;;;5073171;28;20050;-78
2022/04/21 00:12:41;;;;;;;9.90;5.43;;;7.30;99.90;;;;;;5089765;28;20044;-78
2022/04/21 00:15:08;;;;;;;9.00;5.20;;;7.30;99.90;;;;;;5089460;28;20047;-78
2022/04/21 00:17:33;;;;;;;9.90;6.13;;;7.30;99.90;;;;;;5072260;28;20040;-78
2022/04/21 00:19:59;;;;;;;12.02;6.43;;;7.30;99.90;;;;;;5073091;28;20456;-78
2022/04/21 00:25:10;;;;;;;13.10;5.80;;;7.30;99.90;;;;;;5090082;28;20055;-78
2022/04/21 00:27:41;;;;;;;10.00;5.68;;;7.20;99.90;;;;;;5089456;28;20044;-79
2022/04/21 00:30:07;;;;;;;14.32;5.53;;;7.20;99.90;;;;;;5089325;28;20131;-78
2022/04/21 00:32:34;;;;;;;10.52;5.57;;;7.20;99.90;;;;;;5108688;28;20092;-77
2022/04/21 00:35:00;;;;;;;9.50;5.53;;;7.20;99.90;;;;;;5091193;28;20130;-77
2022/04/21 00:37:26;;;;;;;12.18;6.00;;;7.10;99.90;;;;;;5092294;28;20486;-78
2022/04/21 00:39:52;;;;;;;9.55;5.72;;;7.10;99.90;;;;;;5089437;28;20052;-77
2022/04/21 00:42:17;;;;;;;12.60;5.55;;;7.00;99.90;;;;;;5089632;28;20040;-78
2022/04/21 00:44:43;;;;;;;8.57;5.90;;;7.00;99.90;;;;;;5107808;28;20123;-78
2022/04/21 00:47:10;;;;;;;13.07;6.22;;;7.10;99.90;;;;;;5055531;28;20441;-77
2022/04/21 00:49:36;;;;;;;11.68;6.63;;;8.30;99.90;;;;;;5089545;28;20578;-78
2022/04/21 00:52:02;;;;;;;11.90;6.47;;;6.90;99.90;;;;;;5088776;28;20043;-78
2022/04/21 00:54:33;;;;;;;10.10;6.20;;;6.90;99.90;;;;;;5072945;28;20044;-77
2022/04/21 00:57:03;;;;;;;11.55;7.28;;;7.70;99.90;;;;;;5071850;28;20048;-78
2022/04/21 00:59:30;;;;;;;11.55;6.45;;;6.80;99.90;;;;;;5107623;28;20811;-78
2022/04/21 01:04:45;;;;;;;13.80;6.97;;;6.80;99.90;;;;;;5088232;28;20138;-78
2022/04/21 01:07:11;;;;;;;14.48;6.28;;;6.80;99.90;;;;;;5073037;28;20954;-78
2022/04/21 01:09:41;;;;;;;11.65;6.85;;;6.80;99.90;;;;;;5088012;28;20229;-79
2022/04/21 01:12:11;;;;;;;10.80;6.72;;;6.70;99.90;;;;;;5089681;28;20050;-79
2022/04/21 01:14:37;;;;;;;11.25;7.80;;;6.80;99.90;;;;;;5106983;28;20039;-79
2022/04/21 01:17:07;;;;;;;13.00;6.97;;;7.90;99.90;;;;;;5088535;28;20491;-78
2022/04/21 01:19:33;;;;;;;13.50;7.25;;;6.70;99.90;;;;;;5089262;28;20067;-78
2022/04/21 01:21:59;;;;;;;16.67;7.95;;;6.80;99.90;;;;;;5087712;28;20040;-78
2022/04/21 01:24:26;;;;;;;12.75;8.23;;;6.70;99.90;;;;;;5088754;28;20392;-77
2022/04/21 01:26:54;;;;;;;16.15;8.05;;;6.80;99.90;;;;;;5087319;28;20075;-78
2022/04/21 01:29:19;;;;;;;16.08;8.43;;;6.70;99.90;;;;;;5088793;28;20047;-78
2022/04/21 01:31:45;;;;;;;14.20;7.95;;;6.70;99.90;;;;;;5088180;28;20043;-79
2022/04/21 01:34:11;;;;;;;12.82;8.00;;;6.70;99.90;;;;;;5087948;28;20052;-79
2022/04/21 01:41:08;;;;;;;18.95;7.93;;;6.70;99.90;;;;;;5107397;28;20043;-78
2022/04/21 01:42:13;;;;;;;20.40;7.90;;;6.60;99.90;;;;;;5075017;28;20544;-78
2022/04/21 01:44:38;;;;;;;18.88;9.57;;;6.80;99.90;;;;;;5088193;28;20482;-78
2022/04/21 01:47:04;;;;;;;11.38;7.93;;;6.60;99.90;;;;;;5088137;28;20048;-78
2022/04/21 01:49:30;;;;;;;12.75;7.95;;;6.60;99.90;;;;;;5107167;28;20436;-77
2022/04/21 01:51:56;;;;;;;14.35;8.00;;;6.60;99.90;;;;;;5106187;28;20460;-78
2022/04/21 01:54:21;;;;;;;15.57;8.10;;;6.60;99.90;;;;;;5106861;28;20514;-78
2022/04/21 01:56:47;;;;;;;15.38;9.23;;;6.60;99.90;;;;;;5054051;28;20043;-78
2022/04/21 01:59:13;;;;;;;14.40;8.40;;;6.50;99.90;;;;;;5088406;28;20087;-77
2022/04/21 02:01:39;;;;;;;17.83;8.77;;;6.60;99.90;;;;;;5054549;28;20036;-78
2022/04/21 02:04:05;;;;;;;11.10;7.60;;;6.50;99.90;;;;;;5070693;28;20456;-77
2022/04/21 02:06:30;;;;;;;19.48;9.02;;;6.50;99.90;;;;;;5038626;28;20043;-78
2022/04/21 02:08:57;;;;;;;12.63;7.35;;;6.50;99.90;;;;;;5071598;28;20073;-78
2022/04/21 02:11:24;;;;;;;17.15;8.43;;;6.50;99.90;;;;;;5090849;28;20101;-78
2022/04/21 02:13:50;;;;;;;12.82;8.52;;;6.50;99.90;;;;;;5089201;28;20428;-78
2022/04/21 02:16:15;;;;;;;14.40;8.98;;;6.50;99.90;;;;;;5071950;28;20040;-78
2022/04/21 02:18:41;;;;;;;14.98;9.20;;;6.40;99.90;;;;;;5106392;28;20118;-78
2022/04/21 02:21:07;;;;;;;15.27;8.73;;;6.40;99.90;;;;;;5106220;28;20478;-78
2022/04/21 02:23:32;;;;;;;14.73;8.88;;;6.60;99.90;;;;;;5088463;28;20128;-78
2022/04/21 02:25:58;;;;;;;17.48;8.65;;;6.40;99.90;;;;;;5087731;28;20047;-79
2022/04/21 02:28:25;;;;;;;16.55;8.27;;;6.40;99.90;;;;;;5071327;28;20044;-79
2022/04/21 02:30:51;;;;;;;12.35;8.55;;;6.30;99.90;;;;;;5087587;28;20040;-78
2022/04/21 02:33:17;;;;;;;18.20;9.15;;;6.30;99.90;;;;;;5106441;28;20487;-79
2022/04/21 02:35:43;;;;;;;12.45;8.45;;;6.30;99.90;;;;;;5053966;28;20040;-79
2022/04/21 02:38:09;;;;;;;19.77;9.20;;;6.50;99.90;;;;;;5091165;28;20078;-78
2022/04/21 02:40:34;;;;;;;18.05;8.38;;;6.30;99.90;;;;;;5110669;28;20051;-79
2022/04/21 02:43:00;;;;;;;15.02;9.07;;;6.30;99.90;;;;;;5109160;28;20398;-78
2022/04/21 02:45:26;;;;;;;13.00;8.35;;;6.30;99.90;;;;;;5110954;28;20043;-79
2022/04/21 02:47:52;;;;;;;13.20;7.93;;;6.30;99.90;;;;;;5090883;28;20083;-79
2022/04/21 02:50:19;;;;;;;17.45;9.07;;;6.30;99.90;;;;;;5091842;28;20043;-78
2022/04/21 02:52:45;;;;;;;15.38;8.68;;;6.40;99.90;;;;;;5090849;28;20235;-79
2022/04/21 02:57:56;;;;;;;16.13;7.90;;;6.20;99.90;;;;;;5110445;28;20047;-79
2022/04/21 03:00:22;;;;;;;12.95;8.07;;;6.10;99.90;;;;;;5074149;28;20487;-79
2022/04/21 03:02:51;;;;;;;20.95;8.27;;;6.10;99.90;;;;;;5092048;28;20039;-79
2022/04/21 03:05:17;;;;;;;14.15;8.70;;;6.10;99.90;;;;;;5074233;28;20040;-78
2022/04/21 03:07:43;;;;;;;17.02;8.77;;;6.70;99.90;;;;;;5110071;28;20031;-78
2022/04/21 03:10:09;;;;;;;12.75;8.15;;;6.00;99.90;;;;;;5090962;28;20122;-78
2022/04/21 03:12:35;;;;;;;12.68;7.90;;;6.00;99.90;;;;;;5109275;28;20043;-78
2022/04/21 03:15:01;;;;;;;10.60;7.53;;;5.90;99.90;;;;;;5110067;28;20100;-79
2022/04/21 03:17:29;;;;;;;13.77;8.25;;;6.00;99.90;;;;;;5108628;28;20628;-78
2022/04/21 03:19:55;;;;;;;12.63;7.97;;;5.90;99.90;;;;;;5091398;28;20051;-78
2022/04/21 03:25:07;;;;;;;12.15;8.20;;;5.80;99.90;;;;;;5090613;28;20058;-79
2022/04/21 03:27:33;;;;;;;13.10;8.20;;;5.80;99.90;;;;;;5091492;28;20847;-79
2022/04/21 03:30:08;;;;;;;14.57;8.57;;;5.80;99.90;;;;;;5073424;28;20299;-79
2022/04/21 03:32:34;;;;;;;18.80;8.45;;;5.80;99.90;;;;;;5075826;28;20051;-79
2022/04/21 03:35:01;;;;;;;16.10;9.32;;;5.70;99.90;;;;;;5073371;28;20075;-79
2022/04/21 03:37:27;;;;;;;19.13;7.80;;;5.70;99.90;;;;;;5074537;28;20485;-79
2022/04/21 03:39:53;;;;;;;13.30;6.90;;;5.70;99.90;;;;;;5057068;28;20376;-78
2022/04/21 03:42:23;;;;;;;14.02;8.02;;;5.70;99.90;;;;;;5090838;28;20051;-78
2022/04/21 03:44:49;;;;;;;12.65;8.43;;;5.60;99.90;;;;;;5110345;28;20082;-79
2022/04/21 03:47:15;;;;;;;13.27;7.93;;;5.60;99.90;;;;;;5111370;28;20036;-78
2022/04/21 03:49:41;;;;;;;12.75;7.63;;;5.60;99.90;;;;;;5093569;28;20549;-78
2022/04/21 03:52:08;;;;;;;12.20;8.18;;;5.60;99.90;;;;;;5109073;28;20046;-78
2022/04/21 03:54:36;;;;;;;14.20;7.18;;;6.10;99.90;;;;;;5109005;28;20048;-78
2022/04/21 03:57:02;;;;;;;15.25;8.32;;;5.50;99.90;;;;;;5108562;28;20048;-78
2022/04/21 03:59:28;;;;;;;14.95;7.43;;;5.50;99.90;;;;;;5089715;28;20044;-78
2022/04/21 04:02:01;;;;;;;15.18;7.05;;;5.50;99.90;;;;;;5074675;28;20402;-80
2022/04/21 04:04:32;;;;;;;11.20;6.88;;;5.50;99.90;;;;;;5073727;28;20122;-79
2022/04/21 04:12:37;;;;;;;14.82;7.90;;;5.50;99.90;;;;;;5089997;28;20043;-79
2022/04/21 04:15:05;;;;;;;11.55;6.45;;;5.80;99.90;;;;;;5057367;28;20123;-79
2022/04/21 04:17:30;;;;;;;12.43;7.15;;;5.40;99.90;;;;;;5072527;28;20043;-79
2022/04/21 04:19:56;;;;;;;9.95;6.70;;;5.40;99.90;;;;;;5090188;28;20551;-78
2022/04/21 04:22:22;;;;;;;12.02;6.60;;;5.40;99.90;;;;;;5089349;28;20493;-79
2022/04/21 04:24:53;;;;;;;10.68;6.63;;;5.40;99.90;;;;;;5107816;28;20048;-78
2022/04/21 04:27:20;;;;;;;13.93;6.82;;;5.30;99.90;;;;;;5108257;28;20139;-78
2022/04/21 04:29:46;;;;;;;13.55;7.45;;;5.40;99.90;;;;;;5107733;28;20446;-78
2022/04/21 04:32:14;;;;;;;14.90;7.35;;;5.40;99.90;;;;;;5073829;28;20079;-78
2022/04/21 04:34:39;;;;;;;13.65;7.88;;;5.30;99.90;;;;;;5107344;28;20074;-79
2022/04/21 04:37:05;;;;;;;10.90;7.15;;;4.90;99.90;;;;;;5089580;28;20047;-78
2022/04/21 04:39:31;;;;;;;13.70;6.53;;;5.30;99.90;;;;;;5072456;28;20527;-79
2022/04/21 04:44:41;;;;;;;11.60;6.15;;;5.30;99.90;;;;;;5089628;28;20134;-78
2022/04/21 04:47:06;;;;;;;13.80;7.07;;;5.30;99.90;;;;;;5088551;28;20527;-78
2022/04/21 04:49:32;;;;;;;14.15;7.80;;;5.40;99.90;;;;;;5072379;28;20056;-79
2022/04/21 04:51:58;;;;;;;14.18;6.88;;;5.40;99.90;;;;;;5088090;28;20039;-79
2022/04/21 04:54:25;;;;;;;12.75;7.25;;;5.40;99.90;;;;;;5072689;28;20100;-78
2022/04/21 04:56:51;;;;;;;11.20;7.00;;;5.40;99.90;;;;;;5055599;28;20048;-80
2022/04/21 04:59:17;;;;;;;11.77;7.40;;;5.40;99.90;;;;;;5088117;28;20406;-80
2022/04/21 05:01:45;;;;;;;11.73;7.47;;;5.40;99.90;;;;;;5055648;28;20053;-79
2022/04/21 05:04:18;;;;;;;13.05;7.40;;;5.50;99.90;;;;;;5088132;28;20418;-78
2022/04/21 05:06:49;;;;;;;10.18;6.65;;;5.50;99.90;;;;;;5089684;28;20039;-80
2022/04/21 05:09:17;;;;;;;13.75;6.38;;;5.50;99.90;;;;;;5088269;28;20044;-79
2022/04/21 05:11:48;;;;;;;9.02;5.65;;;5.60;99.90;;;;;;5089133;28;20036;-79
2022/04/21 05:14:14;;;;;;;9.95;6.47;;;5.60;99.90;;;;;;5072586;28;20043;-79
2022/04/21 05:16:40;;;;;;;14.45;6.22;;;5.70;99.90;;;;;;5071635;28;20058;-80
2022/04/21 05:19:13;;;;;;;10.23;6.20;;;5.80;99.90;;;;;;5090786;28;20063;-79
2022/04/21 05:21:40;;;;;;;9.75;6.05;;;5.80;99.90;;;;;;5089592;28;20512;-80
2022/04/21 05:24:06;;;;;;;12.43;6.50;;;5.80;99.90;;;;;;5089062;28;20062;-78
2022/04/21 05:26:33;;;;;;;10.05;6.22;;;5.90;99.90;;;;;;5072490;28;20047;-79
2022/04/21 05:30:55;;;;;;;9.20;5.82;;;6.00;99.90;;;;;;5071797;28;20097;-79
2022/04/21 05:31:56;;;;;;;11.32;5.68;;;6.10;99.90;;;;;;5088761;28;20086;-79
2022/04/21 05:34:23;;;;;;;11.63;6.97;;;6.20;99.90;;;;;;5071127;28;20071;-80
2022/04/21 05:36:50;;;;;;;9.20;6.45;;;6.30;99.90;;;;;;5088739;28;20051;-79
2022/04/21 05:39:16;;;;;;;11.73;7.10;;;6.40;99.90;;;;;;5086683;28;20087;-80
2022/04/21 05:41:43;;;;;;;11.20;6.60;;;6.50;99.90;;;;;;5088900;28;20044;-79
2022/04/21 05:44:10;;;;;;;11.20;6.75;;;6.60;99.90;;;;;;5106800;28;20116;-79
2022/04/21 05:46:36;;;;;;;10.95;7.63;;;6.70;99.90;;;;;;5088275;28;20114;-79
2022/04/21 05:49:03;;;;;;;10.00;6.68;;;6.80;99.90;;;;;;5107274;28;20458;-76
2022/04/21 05:51:28;;;;;;;15.90;6.95;;;6.90;99.90;;;;;;5106067;28;20119;-77
2022/04/21 05:53:57;;;;;;;13.95;6.85;;;7.00;99.90;;;;;;5088643;28;20213;-76
2022/04/21 05:56:24;;;;;;;15.18;7.05;;;7.10;99.90;;;;;;5105509;28;20407;-77
2022/04/21 05:58:50;;;;;;;8.40;5.95;;;7.20;99.90;;;;;;5088300;28;20539;-78
2022/04/21 06:01:16;;;;;;;9.90;6.22;;;7.30;99.90;;;;;;5070467;28;20126;-78
2022/04/21 06:03:42;;;;;;;9.63;6.22;;;7.50;99.90;;;;;;5086195;28;20047;-78
2022/04/21 06:06:09;;;;;;;13.10;6.07;;;7.60;99.90;;;;;;5087625;28;20073;-79
2022/04/21 06:08:36;;;;;;;9.13;6.32;;;7.70;99.90;;;;;;5086054;28;20507;-78
2022/04/21 06:11:03;;;;;;;9.05;5.90;;;7.80;99.90;;;;;;5107034;28;20107;-79
2022/04/21 06:13:30;;;;;;;9.65;6.03;;;7.90;99.90;;;;;;5093422;28;20043;-78
2022/04/21 06:15:59;;;;;;;8.13;5.72;;;8.10;99.90;;;;;;5094408;28;20093;-79
2022/04/21 06:18:26;;;;;;;11.70;6.18;;;8.20;99.90;;;;;;5077187;28;20048;-79
2022/04/21 06:20:53;;;;;;;12.07;6.75;;;8.30;99.90;;;;;;5093175;28;20486;-79
2022/04/21 06:23:19;;;;;;;12.70;6.60;;;8.40;99.90;;;;;;5112867;28;20074;-79
2022/04/21 06:25:45;;;;;;;13.95;6.75;;;7.50;99.90;;;;;;5111668;28;20063;-78
2022/04/21 06:28:11;;;;;;;11.52;6.40;;;8.70;99.90;;;;;;5094661;28;20465;-79
2022/04/21 06:30:38;;;;;;;9.70;5.57;;;8.80;99.90;;;;;;5112150;28;20039;-78
2022/04/21 06:33:04;;;;;;;9.38;5.68;;;8.90;99.90;;;;;;5093950;28;20099;-79
2022/04/21 06:35:30;;;;;;;6.05;5.05;;;9.10;99.90;;;;;;5076909;28;20079;-78
2022/04/21 06:37:56;;;;;;;7.95;5.60;;;9.20;99.90;;;;;;5111442;28;20082;-79
2022/04/21 06:40:22;;;;;;;9.00;5.70;;;9.30;99.90;;;;;;5090004;28;20152;-79
2022/04/21 06:42:48;;;;;;;6.53;4.55;;;9.50;99.90;;;;;;5090783;28;20047;-79
2022/04/21 06:48:02;;;;;;;6.75;4.78;;;10.50;99.90;;;;;;5091265;28;20039;-79
2022/04/21 06:50:28;;;;;;;8.85;4.70;;;10.20;99.90;;;;;;5091609;28;20043;-79
2022/04/21 06:52:54;;;;;;;6.82;4.40;;;10.30;99.90;;;;;;5092745;28;20040;-80
2022/04/21 06:55:19;;;;;;;7.20;4.50;;;10.20;99.90;;;;;;5091087;28;20036;-80
2022/04/21 06:57:45;;;;;;;6.43;3.80;;;10.20;99.90;;;;;;5091894;28;20047;-80
2022/04/21 07:00:11;;;;;;;6.25;3.75;;;10.30;99.90;;;;;;5091106;28;20044;-80
2022/04/21 07:02:38;;;;;;;7.30;3.95;;;10.40;99.90;;;;;;5090359;28;20256;-80
2022/04/21 07:05:12;;;;;;;4.63;3.78;;;10.60;99.90;;;;;;5090734;28;20503;-79
2022/04/21 07:07:39;;;;;;;4.75;3.20;;;10.70;99.90;;;;;;5089385;28;20513;-80
2022/04/21 07:10:06;;;;;;;4.80;3.65;;;12.10;99.90;;;;;;5092058;28;20063;-80
2022/04/21 07:12:33;;;;;;;5.78;3.42;;;10.90;99.90;;;;;;5090260;28;20079;-79
2022/04/21 07:15:04;;;;;;;9.40;3.67;;;11.10;99.90;;;;;;5091466;28;20105;-79
2022/04/21 07:17:30;;;;;;;8.88;3.33;;;11.20;99.90;;;;;;5090292;28;20079;-79
2022/04/21 07:19:56;;;;;;;6.82;3.83;;;11.30;99.90;;;;;;5091636;28;20502;-79
2022/04/21 07:22:25;;;;;;;6.47;3.42;;;11.50;99.90;;;;;;5090771;28;20040;-79
2022/04/21 07:24:52;;;;;;;5.28;3.25;;;12.30;99.90;;;;;;5087419;28;20044;-79
2022/04/21 07:27:17;;;;;;;6.82;3.90;;;11.70;99.90;;;;;;5088296;28;20040;-79
2022/04/21 07:29:43;;;;;;;9.40;3.58;;;11.80;99.90;;;;;;5087221;28;20055;-79
2022/04/21 07:32:10;;;;;;;8.85;4.57;;;13.20;99.90;;;;;;5088024;28;20043;-79
2022/04/21 07:34:36;;;;;;;6.95;4.15;;;12.10;99.90;;;;;;5087398;28;20071;-79
2022/04/21 07:37:02;;;;;;;8.15;5.18;;;13.50;99.90;;;;;;5087605;28;20086;-79
2022/04/21 07:39:28;;;;;;;7.80;4.15;;;12.30;99.90;;;;;;5091653;28;20055;-80
2022/04/21 07:41:55;;;;;;;6.22;4.18;;;12.50;99.90;;;;;;5089327;28;20159;-80
2022/04/21 07:44:21;;;;;;;7.07;4.25;;;13.10;99.90;;;;;;5108647;28;20035;-79
2022/04/21 07:46:46;;;;;;;5.15;3.80;;;12.70;99.90;;;;;;5107407;28;20073;-79
2022/04/21 07:53:13;;;;;;;3.90;3.05;;;13.00;99.90;;;;;;5108402;28;20083;-74
2022/04/21 07:54:43;;;;;;;5.70;2.97;;;13.10;99.90;;;;;;5108077;28;20083;-78
2022/04/21 07:57:09;;;;;;;5.35;2.90;;;13.20;99.90;;;;;;5091263;28;20072;-78
2022/04/21 07:59:36;;;;;;;3.63;2.58;;;13.30;99.90;;;;;;5090047;28;20065;-77
2022/04/21 08:02:03;;;;;;;7.82;2.47;;;13.40;99.90;;;;;;5108602;28;20050;-77
2022/04/21 08:04:30;;;;;;;3.63;2.25;;;13.50;99.90;;;;;;5089590;28;20123;-77
2022/04/21 08:06:57;;;;;;;6.38;1.90;;;13.60;99.90;;;;;;5108382;28;20516;-77
2022/04/21 08:09:23;;;;;;;4.43;1.73;;;13.70;99.90;;;;;;5108668;28;20040;-78
2022/04/21 08:11:49;;;;;;;4.00;1.30;;;13.80;99.60;;;;;;5090533;28;20108;-77
2022/04/21 08:14:16;;;;;;;3.05;1.70;;;13.90;98.70;;;;;;5108993;28;20055;-78
2022/04/21 08:16:43;;;;;;;2.05;1.45;;;14.00;97.30;;;;;;5072393;28;20055;-77
2022/04/21 08:19:12;;;;;;;2.10;1.40;;;14.30;95.50;;;;;;5090067;28;20051;-77
2022/04/21 08:21:38;;;;;;;4.88;1.25;;;14.70;93.40;;;;;;5089626;28;20039;-76
2022/04/21 08:32:37;;;;;;;3.28;1.17;;;15.80;84.20;;;;;;5090690;28;20039;-78
2022/04/21 08:35:03;;;;;;;;;;;15.80;83.00;;;;;;5074441;28;20036;-77
2022/04/21 08:37:33;;;;;;;3.20;1.40;;;15.80;61.40;;;;;;5107891;28;19919;-77
2022/04/21 08:40:00;;;;;;;2.50;1.30;;;15.80;85.70;;;;;;5107789;28;20050;-77
2022/04/21 08:42:29;;;;;;;3.47;1.52;;;16.00;83.30;;;;;;5072570;28;20158;-77
2022/04/21 08:44:57;;;;;;;3.35;1.52;;;16.20;74.60;;;;;;5089675;28;20150;-77
2022/04/21 08:47:27;;;;;;;2.28;1.20;;;16.20;74.80;;;;;;5072412;28;20380;-77
2022/04/21 08:49:57;;;;;;;4.15;1.60;;;16.20;75.80;;;;;;5089143;28;20543;-77
2022/04/21 08:52:24;;;;;;;2.97;1.70;;;16.20;76.00;;;;;;5072653;28;20074;-77
2022/04/21 08:54:50;;;;;;;3.85;1.77;;;16.20;75.20;;;;;;5107238;28;20042;-77
2022/04/21 08:57:16;;;;;;;4.18;1.70;;;16.10;75.50;;;;;;5089133;28;20048;-78
2022/04/21 08:59:41;;;;;;;3.00;1.88;;;16.10;75.90;;;;;;5072362;28;20035;-77
2022/04/21 09:02:07;;;;;;;4.90;2.25;;;16.20;73.60;;;;;;5055930;28;20449;-77
2022/04/21 09:04:33;;;;;;;2.70;1.73;;;16.20;76.40;;;;;;5107259;28;20047;-77
2022/04/21 09:07:20;;;;;;;2.63;1.58;;;16.20;75.90;;;;;;5107313;28;20079;-77
2022/04/21 09:10:13;;;;;;;3.63;1.75;;;16.30;73.00;;;;;;5108126;28;20405;-77
2022/04/21 09:12:47;;;;;;;3.17;1.50;;;16.40;70.60;;;;;;5084832;28;20414;-77
2022/04/21 09:15:16;;;;;;;5.05;1.83;;;16.40;73.80;;;;;;5089320;28;20386;-77
2022/04/21 09:17:47;;;;;;;4.80;1.90;;;16.30;77.20;;;;;;5088851;28;20036;-77
2022/04/21 09:20:18;;;;;;;2.30;1.50;;;16.40;75.30;;;;;;5088475;28;20534;-76
2022/04/21 09:22:54;;;;;;;3.40;1.70;;;16.40;75.40;;;;;;5089556;28;20042;-77
2022/04/21 09:25:22;;;;;;;2.00;1.60;;;16.50;72.00;;;;;;5107056;28;20039;-76
2022/04/21 09:27:50;;;;;;;4.43;1.77;;;16.40;74.10;;;;;;5107590;28;20106;-77
2022/04/21 09:30:17;;;;;;;3.67;1.67;;;16.40;73.40;;;;;;5088187;28;20040;-77
2022/04/21 09:32:52;;;;;;;4.38;1.88;;;16.50;74.00;;;;;;5088789;28;20039;-77
2022/04/21 09:35:19;;;;;;;2.00;1.40;;;16.50;69.50;;;;;;5107518;28;20043;-78
2022/04/21 09:37:52;;;;;;;4.13;1.45;;;16.60;71.40;;;;;;5088396;28;20055;-78
2022/04/21 09:40:20;;;;;;;2.83;1.58;;;16.70;67.30;;;;;;5085240;28;20392;-77
2022/04/21 09:43:01;;;;;;;2.45;1.33;;;16.70;69.50;;;;;;5084955;28;20047;-77
2022/04/21 09:48:22;;;;;;;4.43;1.55;;;16.90;66.60;;;;;;5085148;28;20048;-78
2022/04/21 09:50:53;;;;;;;2.72;1.75;;;17.10;67.60;;;;;;5084483;28;20460;-76
2022/04/21 09:53:21;;;;;;;9.82;1.98;;;17.20;66.50;;;;;;5068621;28;20048;-77
2022/04/21 09:55:49;;;;;;;7.15;1.88;;;17.30;66.60;;;;;;5068346;28;20044;-78
2022/04/21 09:58:16;;;;;;;3.90;1.60;;;17.40;66.50;;;;;;5068225;28;20542;-78
2022/04/21 10:00:42;;;;;;;5.90;2.33;;;17.40;65.80;;;;;;5068509;28;20490;-78
2022/04/21 10:03:08;;;;;;;6.25;1.35;;;17.40;65.70;;;;;;5034483;28;20083;-77
2022/04/21 10:05:35;;;;;;;1.73;1.40;;;17.40;65.50;;;;;;5068238;28;20237;-76
2022/04/21 10:08:04;;;;;;;6.88;1.67;;;17.40;64.70;;;;;;5085425;28;20123;-76
2022/04/21 10:10:31;;;;;;;4.68;1.92;;;17.50;64.50;;;;;;5068116;28;20055;-76
2022/04/21 10:12:59;;;;;;;6.55;1.65;;;17.50;64.40;;;;;;5067516;28;20080;-76
2022/04/21 10:15:26;;;;;;;5.78;1.70;;;17.60;64.20;;;;;;5085952;28;20114;-77
2022/04/21 10:17:52;;;;;;;4.85;1.95;;;17.70;64.30;;;;;;5068376;28;20212;-77
2022/04/21 10:20:24;;;;;;;3.78;1.65;;;17.80;64.20;;;;;;5085661;28;20099;-77
2022/04/21 10:22:52;;;;;;;2.53;1.42;;;17.90;63.10;;;;;;5086447;28;20418;-77
2022/04/21 10:25:19;;;;;;;2.95;1.90;;;17.90;62.20;;;;;;5067292;28;20044;-77
2022/04/21 10:27:47;;;;;;;4.72;1.15;;;18.00;62.00;;;;;;5086312;28;20083;-77
2022/04/21 10:30:16;;;;;;;3.00;1.40;;;18.00;60.90;;;;;;5085726;28;20036;-77
2022/04/21 10:32:52;;;;;;;9.18;2.33;;;18.00;59.80;;;;;;5085967;28;20040;-76
2022/04/21 10:35:41;;;;;;;2.38;1.40;;;18.00;59.40;;;;;;5086698;28;20036;-77
2022/04/21 10:38:19;;;;;;;7.18;2.10;;;18.10;57.60;;;;;;5072864;28;20048;-77
2022/04/21 10:41:03;;;;;;;7.63;1.65;;;18.10;58.80;;;;;;5084336;28;20143;-77
2022/04/21 10:43:50;;;;;;;3.95;1.30;;;18.10;57.00;;;;;;5085984;28;20127;-75
2022/04/21 10:46:32;;;;;;;3.15;1.55;;;18.20;58.40;;;;;;5085421;28;20051;-76
2022/04/21 10:48:59;;;;;;;2.92;1.40;;;18.40;59.70;;;;;;5052743;28;20491;-76
2022/04/21 10:57:17;;;;;;;2.30;1.40;;;18.70;59.30;;;;;;5086293;28;20055;-77
2022/04/21 11:00:10;;;;;;;3.90;1.45;;;18.70;57.60;;;;;;5087699;28;20127;-78
2022/04/21 11:02:41;;;;;;;2.70;1.15;;;18.70;56.30;;;;;;5070733;28;20044;-77
2022/04/21 11:05:22;;;;;;;3.67;1.30;;;18.60;57.00;;;;;;5088017;28;20052;-78
2022/04/21 11:07:59;;;;;;;3.35;1.58;;;18.60;56.50;;;;;;5087659;28;20391;-77
2022/04/21 11:10:38;;;;;;;3.10;1.23;;;18.70;54.90;;;;;;5071291;28;20094;-77
2022/04/21 11:13:08;;;;;;;4.03;1.58;;;18.70;55.90;;;;;;5087691;28;20055;-77
2022/04/21 11:15:39;;;;;;;4.38;1.30;;;18.80;55.50;;;;;;5070388;28;20047;-77
2022/04/21 11:18:15;;;;;;;3.33;1.13;;;19.00;56.40;;;;;;5087831;28;20514;-77
2022/04/21 11:20:43;;;;;;;3.25;1.10;;;19.10;54.40;;;;;;5088280;28;20047;-77
2022/04/21 11:23:30;;;;;;;6.72;1.38;;;19.20;54.80;;;;;;5087666;28;20040;-77
2022/04/21 11:26:08;;;;;;;2.70;1.30;;;19.10;51.80;;;;;;5087728;28;20052;-77
2022/04/21 11:28:33;;;;;;;7.40;1.23;;;19.00;52.70;;;;;;5087000;28;20043;-77
2022/04/21 11:31:02;;;;;;;3.65;1.38;;;19.00;53.70;;;;;;5088999;28;20036;-77
2022/04/21 11:33:28;;;;;;;1.33;1.02;;;19.10;53.90;;;;;;5086649;28;20048;-77
2022/04/21 11:36:07;;;;;;;3.55;1.35;;;19.20;53.40;;;;;;5054352;28;20036;-77
2022/04/21 11:38:52;;;;;;;3.67;1.60;;;19.20;52.10;;;;;;5087153;28;20048;-78
2022/04/21 11:41:18;;;;;;;2.22;1.20;;;19.10;53.20;;;;;;5086841;28;20647;-78
2022/04/21 11:43:50;;;;;;;4.93;1.55;;;19.10;53.50;;;;;;5070661;28;20048;-78
2022/04/21 11:46:20;;;;;;;1.67;1.10;;;19.20;53.70;;;;;;5069813;28;20052;-78
2022/04/21 11:48:46;;;;;;;1.35;1.20;;;19.30;53.00;;;;;;5087449;28;20074;-78
2022/04/21 11:51:24;;;;;;;1.90;1.50;;;19.40;53.00;;;;;;5070381;28;20243;-78
2022/04/21 11:53:50;;;;;;;3.55;1.35;;;19.40;52.90;;;;;;5086902;28;20044;-77
2022/04/21 11:56:17;;;;;;;1.80;1.33;;;19.60;52.90;;;;;;5070729;28;20105;-78
2022/04/21 11:58:43;;;;;;;1.88;1.23;;;19.60;52.60;;;;;;5087149;28;20369;-78
2022/04/21 12:06:51;;;;;;;2.58;1.30;;;19.80;52.10;;;;;;5088041;28;20044;-78
2022/04/21 12:09:21;;;;;;;3.97;1.50;;;19.80;51.50;;;;;;5088030;28;20079;-78
2022/04/21 12:12:07;;;;;;;5.93;1.80;;;19.70;51.80;;;;;;5087734;28;20048;-78
2022/04/21 12:14:34;;;;;;;3.00;1.67;;;19.80;50.30;;;;;;5087265;28;20082;-78
2022/04/21 12:17:01;;;;;;;4.13;1.70;;;19.90;51.80;;;;;;5086831;28;20048;-78
2022/04/21 12:19:35;;;;;;;6.18;2.42;;;20.00;51.50;;;;;;5086728;28;20094;-77
2022/04/21 12:22:21;;;;;;;5.43;2.08;;;20.00;51.60;;;;;;5088224;28;20138;-77
2022/04/21 12:24:54;;;;;;;4.60;1.88;;;20.20;51.00;;;;;;5070121;28;20174;-76
2022/04/21 12:27:34;;;;;;;2.88;1.58;;;20.30;51.30;;;;;;5086996;28;20036;-77
2022/04/21 12:30:00;;;;;;;3.50;1.60;;;20.40;50.70;;;;;;5086345;28;20110;-77
2022/04/21 12:32:31;;;;;;;3.35;1.48;;;20.40;50.90;;;;;;5087693;28;20040;-77
2022/04/21 12:34:59;;;;;;;2.80;1.50;;;20.50;50.40;;;;;;5088027;28;20040;-77
2022/04/21 12:37:30;;;;;;;4.82;2.00;;;20.50;50.60;;;;;;5085956;28;20044;-77
2022/04/21 12:40:02;;;;;;;2.22;1.92;;;20.40;50.20;;;;;;5091371;28;20060;-78
2022/04/21 12:42:28;;;;;;;6.82;1.50;;;20.30;50.80;;;;;;5088970;28;20499;-78
2022/04/21 12:44:55;;;;;;;2.53;1.73;;;20.20;50.60;;;;;;5089048;28;20054;-76
2022/04/21 12:47:22;;;;;;;3.22;1.48;;;20.10;50.70;;;;;;5072551;28;20039;-77
2022/04/21 12:50:03;;;;;;;3.20;1.70;;;20.20;51.20;;;;;;5089584;28;20127;-78
2022/04/21 12:52:36;;;;;;;4.07;2.05;;;20.30;50.40;;;;;;5107916;28;20040;-77
2022/04/21 12:55:05;;;;;;;7.03;2.10;;;20.30;50.70;;;;;;5089976;28;20050;-78
2022/04/21 12:57:31;;;;;;;2.15;1.70;;;20.20;51.20;;;;;;5108565;28;20329;-79
2022/04/21 12:59:57;;;;;;;3.97;1.75;;;20.30;50.80;;;;;;5089783;28;20297;-77
2022/04/21 13:02:23;;;;;;;2.83;1.73;;;20.30;50.80;;;;;;5072144;28;20131;-78
2022/04/21 13:04:49;;;;;;;3.40;2.03;;;20.30;51.20;;;;;;5107950;28;20443;-78
2022/04/21 13:07:15;;;;;;;4.78;1.65;;;20.30;51.50;;;;;;5107491;28;20047;-77
2022/04/21 13:09:41;;;;;;;3.28;2.22;;;20.20;51.80;;;;;;5107542;28;20128;-78
2022/04/21 13:12:08;;;;;;;2.58;1.83;;;20.20;51.70;;;;;;5088517;28;20036;-78
2022/04/21 13:14:33;;;;;;;3.70;1.77;;;20.00;51.40;;;;;;5107557;28;20410;-78
2022/04/21 13:16:59;;;;;;;3.03;1.90;;;19.90;51.90;;;;;;5088607;28;20035;-78
2022/04/21 13:19:25;;;;;;;2.97;1.65;;;19.90;52.30;;;;;;5089057;28;20039;-78
2022/04/21 13:21:55;;;;;;;2.83;1.55;;;19.90;51.70;;;;;;5107459;28;20055;-78
2022/04/21 13:24:21;;;;;;;2.75;2.00;;;20.00;51.50;;;;;;5088646;28;20043;-78
2022/04/21 13:26:47;;;;;;;3.80;2.25;;;20.00;51.60;;;;;;5107163;28;20126;-78
2022/04/21 13:29:13;;;;;;;6.13;2.25;;;20.00;52.10;;;;;;5071531;28;20116;-77
2022/04/21 13:34:23;;;;;;;5.45;2.55;;;19.60;52.40;;;;;;5074901;28;20043;-77
2022/04/21 13:36:48;;;;;;;2.67;2.08;;;19.40;53.50;;;;;;5106709;28;20392;-77
2022/04/21 13:39:15;;;;;;;8.82;2.20;;;19.30;53.50;;;;;;5106730;28;20040;-77
2022/04/21 13:41:41;;;;;;;3.20;2.30;;;19.30;53.90;;;;;;5071137;28;20047;-77
2022/04/21 13:44:07;;;;;;;4.00;2.53;;;19.20;54.00;;;;;;5107134;28;20098;-77
2022/04/21 13:46:35;;;;;;;3.85;2.35;;;19.30;54.30;;;;;;5107256;28;20644;-77